Time;durP1;ratioP1;P1;durP2;ratioP2;P2;SDS_P1;SDS_P2;PMS_P1;PMS_P2;Temp;Humidity;BMP_temperature;BMP_pressure;BME280_temperature;BME280_humidity;BME280_pressure;Samples;Min_cycle;Max_cycle;Signal;HPM_P1;HPM_P2
2023/07/04 00:01:10;;;;;;;0.55;0.52;;;;;;;16.96;91.11;99985.66;4936940;28;20531;-64
2023/07/04 00:03:37;;;;;;;1.08;0.60;;;;;;;16.99;90.86;99979.41;4948726;28;20043;-64
2023/07/04 00:06:05;;;;;;;0.57;0.47;;;;;;;16.96;91.25;99985.66;4945116;28;20030;-62
2023/07/04 00:08:33;;;;;;;1.08;0.95;;;;;;;16.99;92.06;99979.41;4959783;28;20130;-62
2023/07/04 00:11:01;;;;;;;0.93;0.40;;;;;;;17.07;91.44;99981.56;4980844;23;20054;-67
2023/07/04 00:13:47;;;;;;;2.50;0.63;;;;;;;16.93;91.80;99981.06;4964852;28;20050;-67
2023/07/04 00:16:14;;;;;;;0.65;0.35;;;;;;;16.95;92.47;99974.03;4933782;29;20094;-67
2023/07/04 00:18:44;;;;;;;1.58;0.80;;;;;;;17.02;92.12;99965.72;4939379;29;20167;-65
2023/07/04 00:21:14;;;;;;;0.73;0.38;;;;;;;16.95;92.85;99965.09;4934866;29;20057;-67
2023/07/04 00:23:45;;;;;;;1.42;0.70;;;;;;;16.94;92.68;99963.53;4931809;29;20447;-67
2023/07/04 00:26:12;;;;;;;1.88;0.73;;;;;;;16.96;92.37;99963.88;4918754;29;20035;-67
2023/07/04 00:28:39;;;;;;;0.30;0.30;;;;;;;17.03;92.45;99977.38;4930746;29;20047;-67
2023/07/04 00:31:07;;;;;;;1.23;0.60;;;;;;;17.06;92.00;99984.72;4930982;29;20400;-67
2023/07/04 00:33:33;;;;;;;0.70;0.65;;;;;;;16.90;92.40;99979.16;4931205;29;20076;-66
2023/07/04 00:36:04;;;;;;;0.50;0.50;;;;;;;16.86;92.77;99976.50;4926932;29;20404;-67
2023/07/04 00:38:37;;;;;;;1.00;0.50;;;;;;;16.85;92.36;99977.69;4936528;29;20045;-66
2023/07/04 00:41:06;;;;;;;0.88;0.70;;;;;;;16.68;92.88;99967.84;4919267;29;20049;-65
2023/07/04 00:43:57;;;;;;;0.98;0.45;;;;;;;16.63;92.96;99986.56;4916639;29;20075;-66
2023/07/04 00:46:37;;;;;;;1.30;0.80;;;;;;;16.65;93.70;99984.97;4912400;29;20107;-66
2023/07/04 00:49:06;;;;;;;3.72;0.45;;;;;;;16.66;93.35;99994.69;4934199;29;20043;-67
2023/07/04 00:51:34;;;;;;;0.60;0.50;;;;;;;16.74;92.39;99998.81;4917860;29;20575;-66
2023/07/04 00:53:59;;;;;;;5.10;0.70;;;;;;;16.81;92.05;99997.94;4972991;28;20051;-66
2023/07/04 00:56:30;;;;;;;0.50;0.40;;;;;;;16.76;92.17;99998.44;4959307;28;20035;-66
2023/07/04 00:58:59;;;;;;;0.40;0.40;;;;;;;16.76;92.42;99993.75;4961353;28;20042;-67
2023/07/04 01:01:26;;;;;;;2.17;0.80;;;;;;;16.83;91.53;100004.53;4960564;28;20039;-66
2023/07/04 01:03:54;;;;;;;0.43;0.43;;;;;;;16.79;91.41;99989.44;4953663;28;20027;-67
2023/07/04 01:06:39;;;;;;;0.20;0.20;;;;;;;16.81;91.49;99987.84;4959906;28;20499;-66
2023/07/04 01:09:26;;;;;;;0.28;0.28;;;;;;;16.85;91.39;100004.09;4970590;28;20125;-66
2023/07/04 01:11:52;;;;;;;0.55;0.30;;;;;;;16.81;91.44;100014.28;4949395;29;20047;-67
2023/07/04 01:14:26;;;;;;;0.45;0.30;;;;;;;16.81;91.30;100017.75;4909866;29;20035;-66
2023/07/04 01:16:53;;;;;;;0.40;0.30;;;;;;;16.76;91.28;100025.63;4933097;28;20042;-66
2023/07/04 01:19:32;;;;;;;0.20;0.20;;;;;;;16.83;91.34;100022.78;4953114;28;20095;-65
2023/07/04 01:22:21;;;;;;;0.35;0.32;;;;;;;16.69;91.11;100012.88;4953344;28;20158;-66
2023/07/04 01:24:59;;;;;;;0.50;0.50;;;;;;;16.68;91.35;100018.75;4942969;28;20027;-67
2023/07/04 01:27:27;;;;;;;0.40;0.20;;;;;;;16.65;91.53;100011.41;4956593;28;20473;-66
2023/07/04 01:29:54;;;;;;;0.15;0.15;;;;;;;16.75;90.37;100015.91;4935691;28;20411;-67
2023/07/04 01:32:20;;;;;;;0.30;0.30;;;;;;;16.67;90.78;100014.47;4957869;28;20035;-65
2023/07/04 01:34:46;;;;;;;0.25;0.25;;;;;;;16.54;91.35;100008.84;4947263;28;20119;-66
2023/07/04 01:37:13;;;;;;;0.43;0.30;;;;;;;16.67;91.06;100011.75;4956990;28;20039;-66
2023/07/04 01:39:39;;;;;;;0.60;0.40;;;;;;;16.59;91.21;100013.06;4956020;28;20085;-65
2023/07/04 01:42:04;;;;;;;0.20;0.20;;;;;;;16.60;90.61;100017.31;4953236;28;20083;-66
2023/07/04 01:44:30;;;;;;;0.20;0.20;;;;;;;16.60;90.62;100020.03;4965229;28;20559;-66
2023/07/04 01:46:55;;;;;;;1.85;0.40;;;;;;;16.66;90.15;100019.16;4956659;28;20058;-67
2023/07/04 01:49:21;;;;;;;0.77;0.30;;;;;;;16.56;90.58;100030.97;4967097;28;20078;-66
2023/07/04 01:51:47;;;;;;;0.30;0.10;;;;;;;16.53;90.40;100026.31;4969584;28;20039;-65
2023/07/04 01:54:17;;;;;;;1.75;0.68;;;;;;;16.57;89.39;100026.31;4973373;28;20466;-66
2023/07/04 01:56:46;;;;;;;0.17;0.17;;;;;;;16.49;89.52;100031.03;4977756;28;20042;-66
2023/07/04 01:59:11;;;;;;;0.82;0.20;;;;;;;16.46;90.08;100025.63;4974927;28;20030;-66
2023/07/04 02:01:37;;;;;;;1.30;0.40;;;;;;;16.52;90.15;100026.75;4977464;28;20057;-65
2023/07/04 02:04:03;;;;;;;4.00;0.35;;;;;;;16.44;89.80;100036.91;4993700;28;20803;-66
2023/07/04 02:06:29;;;;;;;0.15;0.15;;;;;;;16.41;89.73;100035.03;4968329;28;20035;-65
2023/07/04 02:08:54;;;;;;;0.20;0.20;;;;;;;16.32;90.36;100031.28;4977493;28;20081;-66
2023/07/04 02:11:19;;;;;;;0.30;0.10;;;;;;;16.12;90.72;100037.31;4972791;28;20034;-65
2023/07/04 02:13:45;;;;;;;0.17;0.17;;;;;;;16.18;90.84;100032.22;4976227;28;20517;-65
2023/07/04 02:16:10;;;;;;;0.47;0.47;;;;;;;16.19;90.81;100044.63;4972089;28;20118;-66
2023/07/04 02:18:36;;;;;;;0.57;0.38;;;;;;;16.22;89.99;100038.38;4974899;28;20038;-66
2023/07/04 02:21:02;;;;;;;0.40;0.40;;;;;;;16.22;90.51;100046.50;4976344;28;20463;-65
2023/07/04 02:23:27;;;;;;;1.35;0.30;;;;;;;16.18;90.41;100032.97;4967493;28;20039;-66
2023/07/04 02:25:54;;;;;;;0.55;0.15;;;;;;;16.21;90.01;100037.63;4986619;28;20372;-67
2023/07/04 02:28:19;;;;;;;0.10;0.10;;;;;;;16.11;90.07;100037.72;4980304;28;20076;-66
2023/07/04 02:30:59;;;;;;;0.77;0.60;;;;;;;16.04;90.28;100041.31;4980887;28;20505;-66
2023/07/04 02:33:26;;;;;;;0.38;0.30;;;;;;;15.98;90.70;100042.94;4972133;28;20031;-66
2023/07/04 02:35:52;;;;;;;0.75;0.35;;;;;;;15.95;90.70;100037.56;4961426;28;20570;-66
2023/07/04 02:38:19;;;;;;;0.68;0.20;;;;;;;16.05;90.48;100042.84;4971338;28;20097;-66
2023/07/04 02:40:46;;;;;;;0.30;0.30;;;;;;;15.90;90.89;100043.41;4979094;28;20062;-67
2023/07/04 02:43:13;;;;;;;1.10;0.35;;;;;;;15.89;90.65;100039.94;4973610;28;20164;-66
2023/07/04 02:45:39;;;;;;;0.20;0.20;;;;;;;15.93;90.43;100046.09;4980322;28;20101;-65
2023/07/04 02:48:08;;;;;;;0.30;0.30;;;;;;;15.93;90.36;100053.50;4969996;28;20031;-66
2023/07/04 02:50:35;;;;;;;2.38;0.45;;;;;;;15.94;90.23;100058.50;4977822;28;20027;-67
2023/07/04 02:53:01;;;;;;;8.10;0.35;;;;;;;15.95;90.05;100053.84;4992685;28;20105;-66
2023/07/04 02:55:27;;;;;;;0.20;0.20;;;;;;;15.85;90.04;100055.47;4977723;28;20025;-65
2023/07/04 02:57:53;;;;;;;1.27;0.35;;;;;;;15.88;89.85;100056.63;4974229;28;20035;-67
2023/07/04 03:00:18;;;;;;;0.17;0.17;;;;;;;15.84;90.72;100056.69;4972673;28;20026;-65
2023/07/04 03:02:47;;;;;;;0.30;0.30;;;;;;;15.79;90.96;100059.84;5004057;28;20435;-65
2023/07/04 03:05:13;;;;;;;0.20;0.20;;;;;;;15.80;90.88;100069.50;4980088;28;20049;-65
2023/07/04 03:07:39;;;;;;;0.32;0.32;;;;;;;15.79;90.47;100065.28;4977749;28;20419;-65
2023/07/04 03:10:06;;;;;;;1.35;0.55;;;;;;;15.79;91.06;100064.50;4970839;28;20041;-65
2023/07/04 03:12:32;;;;;;;0.20;0.15;;;;;;;15.70;91.47;100062.25;4974845;28;20129;-67
2023/07/04 03:14:59;;;;;;;0.30;0.30;;;;;;;15.72;91.63;100059.13;4965343;28;20026;-67
2023/07/04 03:17:26;;;;;;;0.85;0.30;;;;;;;15.74;91.71;100059.50;4978627;28;20038;-67
2023/07/04 03:19:52;;;;;;;0.28;0.10;;;;;;;15.71;91.59;100065.75;4978358;28;20446;-67
2023/07/04 03:22:19;;;;;;;0.57;0.30;;;;;;;15.72;91.64;100073.47;4986255;28;20045;-66
2023/07/04 03:24:44;;;;;;;0.08;0.08;;;;;;;15.77;91.42;100070.34;4968057;28;20027;-67
2023/07/04 03:27:10;;;;;;;0.63;0.40;;;;;;;15.73;92.30;100072.31;4978926;28;20046;-69
2023/07/04 03:29:36;;;;;;;0.40;0.30;;;;;;;15.80;92.32;100079.59;4966517;28;20522;-66
2023/07/04 03:32:01;;;;;;;0.22;0.22;;;;;;;15.81;92.72;100075.72;4959443;28;20035;-67
2023/07/04 03:34:27;;;;;;;0.57;0.57;;;;;;;15.85;92.28;100079.19;4970192;28;20051;-66
2023/07/04 03:36:52;;;;;;;0.50;0.50;;;;;;;15.89;93.12;100077.19;4977663;28;20126;-66
2023/07/04 03:39:18;;;;;;;0.40;0.40;;;;;;;15.96;92.46;100075.16;4968516;28;20054;-68
2023/07/04 03:41:43;;;;;;;0.38;0.20;;;;;;;16.04;91.99;100075.84;4968254;28;20039;-65
2023/07/04 03:44:08;;;;;;;1.13;0.40;;;;;;;16.00;91.69;100086.78;4973590;28;20042;-67
2023/07/04 03:46:34;;;;;;;0.77;0.50;;;;;;;16.06;92.11;100078.94;4968783;28;20023;-68
2023/07/04 03:49:00;;;;;;;6.10;0.95;;;;;;;15.99;92.17;100073.56;4976191;28;20041;-68
2023/07/04 03:51:26;;;;;;;0.45;0.45;;;;;;;16.02;91.89;100078.22;4973055;28;20046;-68
2023/07/04 03:53:51;;;;;;;2.17;0.75;;;;;;;15.97;92.38;100087.56;4974661;28;20097;-69
2023/07/04 03:56:18;;;;;;;4.72;1.10;;;;;;;15.95;92.39;100081.75;4977215;28;20033;-68
2023/07/04 03:58:43;;;;;;;1.05;0.70;;;;;;;16.01;92.14;100079.38;4981827;28;20038;-69
2023/07/04 04:01:09;;;;;;;1.45;0.70;;;;;;;16.03;92.01;100085.16;4964984;28;20093;-63
2023/07/04 04:03:38;;;;;;;1.58;1.48;;;;;;;15.90;92.72;100087.66;4965649;28;20043;-68
2023/07/04 04:06:06;;;;;;;1.00;0.70;;;;;;;15.98;92.43;100080.19;4966153;28;20039;-69
2023/07/04 04:08:31;;;;;;;3.63;0.80;;;;;;;16.05;92.07;100077.38;4967094;28;20035;-68
2023/07/04 04:10:57;;;;;;;1.25;0.95;;;;;;;16.03;92.54;100082.44;4975243;28;20034;-68
2023/07/04 04:13:23;;;;;;;0.60;0.60;;;;;;;15.97;92.80;100093.00;4963054;28;20027;-66
2023/07/04 04:15:49;;;;;;;1.40;0.85;;;;;;;15.90;93.89;100084.16;4968814;28;20035;-69
2023/07/04 04:18:15;;;;;;;4.03;0.80;;;;;;;16.00;93.59;100081.34;4974585;28;20057;-67
2023/07/04 04:20:40;;;;;;;4.60;0.60;;;;;;;16.06;93.01;100082.44;4981782;28;20134;-66
2023/07/04 04:23:05;;;;;;;2.75;1.08;;;;;;;16.14;93.10;100083.13;4966334;28;20023;-69
2023/07/04 04:25:38;;;;;;;1.30;0.82;;;;;;;16.20;92.17;100089.66;4971029;28;20407;-67
2023/07/04 04:28:08;;;;;;;0.93;0.60;;;;;;;16.15;92.50;100093.56;4969207;28;20458;-68
2023/07/04 04:30:34;;;;;;;1.25;1.15;;;;;;;16.17;93.04;100096.66;4959622;28;20404;-68
2023/07/04 04:33:01;;;;;;;2.67;1.45;;;;;;;16.27;92.80;100100.44;4972011;28;20038;-67
2023/07/04 04:35:27;;;;;;;1.05;0.80;;;;;;;16.24;93.07;100102.00;4969028;28;20117;-66
2023/07/04 04:37:55;;;;;;;1.05;0.85;;;;;;;16.41;92.11;100102.22;4976109;28;20122;-66
2023/07/04 04:40:24;;;;;;;0.60;0.60;;;;;;;16.34;92.68;100096.88;4972403;28;20169;-66
2023/07/04 04:42:55;;;;;;;0.32;0.32;;;;;;;16.46;92.53;100102.53;4964358;28;20451;-66
2023/07/04 04:45:21;;;;;;;0.73;0.60;;;;;;;16.51;92.23;100104.06;4976375;28;20375;-67
2023/07/04 04:47:53;;;;;;;0.75;0.60;;;;;;;16.63;91.69;100103.47;4984203;28;20443;-66
2023/07/04 04:50:23;;;;;;;2.72;1.10;;;;;;;16.63;91.81;100100.78;4972816;28;20049;-66
2023/07/04 04:52:49;;;;;;;0.77;0.55;;;;;;;16.62;91.58;100093.81;4984900;28;20154;-67
2023/07/04 04:55:15;;;;;;;1.58;0.90;;;;;;;16.72;91.64;100101.06;4981513;28;20026;-66
2023/07/04 04:57:40;;;;;;;0.82;0.60;;;;;;;16.70;91.49;100108.84;4979035;28;20483;-66
2023/07/04 05:00:07;;;;;;;2.85;1.10;;;;;;;16.70;91.54;100106.13;4979162;28;20034;-66
2023/07/04 05:02:33;;;;;;;5.40;0.80;;;;;;;16.84;91.17;100111.38;4964073;28;20043;-67
2023/07/04 05:04:59;;;;;;;1.23;0.90;;;;;;;16.90;90.90;100117.88;4982582;28;20034;-67
2023/07/04 05:07:25;;;;;;;0.50;0.50;;;;;;;16.99;90.44;100118.91;4969071;28;20043;-66
2023/07/04 05:09:54;;;;;;;1.55;0.77;;;;;;;16.93;90.89;100125.22;4980367;28;20047;-67
2023/07/04 05:12:21;;;;;;;1.25;0.73;;;;;;;16.90;90.97;100132.25;4958909;28;20043;-66
2023/07/04 05:14:46;;;;;;;3.30;0.82;;;;;;;17.02;90.93;100123.53;4970894;28;20020;-65
2023/07/04 05:17:12;;;;;;;0.80;0.70;;;;;;;17.34;90.61;100136.69;4968609;28;20093;-66
2023/07/04 05:19:37;;;;;;;3.17;0.50;;;;;;;17.80;89.68;100131.25;4969193;28;20026;-67
2023/07/04 05:22:03;;;;;;;0.75;0.52;;;;;;;18.29;88.78;100136.97;4967705;28;20038;-66
2023/07/04 05:24:30;;;;;;;0.60;0.60;;;;;;;18.66;87.06;100129.19;4972265;28;20057;-66
2023/07/04 05:26:56;;;;;;;1.88;1.10;;;;;;;18.85;85.67;100136.59;4967865;28;20039;-63
2023/07/04 05:29:21;;;;;;;0.80;0.60;;;;;;;18.98;84.22;100136.72;4966655;28;20041;-66
2023/07/04 05:31:47;;;;;;;1.40;0.88;;;;;;;19.23;83.38;100136.91;4976409;28;20038;-66
2023/07/04 05:34:12;;;;;;;1.00;0.40;;;;;;;19.34;82.93;100140.19;4980993;28;20050;-66
2023/07/04 05:36:38;;;;;;;0.60;0.60;;;;;;;19.43;81.61;100140.38;4965378;28;20035;-66
2023/07/04 05:39:06;;;;;;;1.52;0.50;;;;;;;19.61;81.12;100146.16;4972693;28;20424;-63
2023/07/04 05:41:33;;;;;;;1.38;0.55;;;;;;;19.86;80.20;100148.25;4980325;28;20034;-64
2023/07/04 05:44:02;;;;;;;0.63;0.52;;;;;;;19.88;78.36;100147.84;4966522;28;20030;-64
2023/07/04 05:46:28;;;;;;;0.75;0.60;;;;;;;19.83;78.12;100148.34;4976553;28;20194;-64
2023/07/04 05:48:53;;;;;;;1.38;0.68;;;;;;;19.95;78.41;100153.09;4975478;28;20570;-64
2023/07/04 05:51:20;;;;;;;2.47;0.90;;;;;;;20.16;77.47;100160.75;4975239;28;20048;-64
2023/07/04 05:53:50;;;;;;;0.77;0.45;;;;;;;20.04;77.33;100158.72;4977530;28;20426;-64
2023/07/04 05:56:17;;;;;;;3.85;0.57;;;;;;;20.01;77.45;100154.13;4969306;28;20039;-64
2023/07/04 05:58:45;;;;;;;4.20;0.80;;;;;;;19.87;78.39;100158.00;4986954;28;20038;-64
2023/07/04 06:01:16;;;;;;;3.53;0.65;;;;;;;19.97;78.83;100165.16;4963762;28;20760;-64
2023/07/04 06:03:43;;;;;;;2.65;0.43;;;;;;;20.17;78.36;100170.50;4966513;28;20034;-64
2023/07/04 06:06:25;;;;;;;1.23;0.43;;;;;;;20.31;76.57;100181.06;4963570;28;20069;-64
2023/07/04 06:08:52;;;;;;;0.80;0.45;;;;;;;20.36;75.01;100186.78;4975417;28;20423;-64
2023/07/04 06:11:21;;;;;;;0.50;0.45;;;;;;;20.57;74.50;100183.47;4933645;28;1108901;-64
2023/07/04 06:13:46;;;;;;;0.35;0.30;;;;;;;20.64;73.98;100179.75;4978119;28;20090;-63
2023/07/04 06:16:12;;;;;;;0.65;0.43;;;;;;;20.57;74.24;100179.97;4972108;28;20043;-65
2023/07/04 06:18:38;;;;;;;2.78;0.63;;;;;;;20.59;75.10;100174.84;4969615;28;20034;-64
2023/07/04 06:21:12;;;;;;;0.28;0.28;;;;;;;20.64;74.43;100177.03;4970379;28;20069;-64
2023/07/04 06:23:39;;;;;;;1.15;0.60;;;;;;;20.64;74.56;100180.53;4970149;28;20035;-64
2023/07/04 06:26:06;;;;;;;0.50;0.30;;;;;;;20.76;74.41;100187.25;4984195;28;20038;-63
2023/07/04 06:28:36;;;;;;;0.98;0.43;;;;;;;20.86;75.01;100186.16;4971169;28;20063;-64
2023/07/04 06:31:03;;;;;;;0.65;0.45;;;;;;;21.05;75.20;100187.19;4982136;28;20499;-64
2023/07/04 06:33:29;;;;;;;1.13;0.52;;;;;;;21.32;71.95;100180.09;4971852;28;20049;-64
2023/07/04 06:35:55;;;;;;;0.50;0.20;;;;;;;21.24;71.40;100191.69;4968194;28;20035;-65
2023/07/04 06:38:21;;;;;;;2.85;0.38;;;;;;;21.19;69.85;100190.28;4976568;28;20134;-65
2023/07/04 06:40:58;;;;;;;1.63;0.60;;;;;;;21.03;69.54;100186.88;4972729;28;20031;-64
2023/07/04 06:43:25;;;;;;;0.52;0.22;;;;;;;20.95;69.74;100194.50;4964353;28;20060;-64
2023/07/04 06:45:51;;;;;;;1.45;0.20;;;;;;;21.05;70.08;100198.91;4961076;28;20039;-64
2023/07/04 06:48:17;;;;;;;1.15;0.50;;;;;;;21.17;69.89;100200.91;4981441;28;20032;-64
2023/07/04 06:50:42;;;;;;;0.35;0.20;;;;;;;21.13;70.87;100205.72;4975547;28;20039;-66
2023/07/04 06:53:08;;;;;;;0.63;0.40;;;;;;;20.96;72.12;100207.00;4977998;28;20081;-64
2023/07/04 06:55:34;;;;;;;0.55;0.40;;;;;;;21.25;70.91;100218.63;4965190;28;20484;-64
2023/07/04 06:57:59;;;;;;;1.52;0.50;;;;;;;21.22;68.17;100218.75;4977865;28;20026;-64
2023/07/04 07:00:24;;;;;;;0.50;0.47;;;;;;;21.27;70.59;100227.19;4977179;28;20030;-65
2023/07/04 07:02:50;;;;;;;0.35;0.32;;;;;;;21.41;70.24;100223.25;4959535;28;20043;-64
2023/07/04 07:05:17;;;;;;;0.80;0.50;;;;;;;21.49;68.14;100219.09;4960191;28;20023;-64
2023/07/04 07:07:45;;;;;;;0.50;0.35;;;;;;;21.38;69.50;100215.91;4970889;28;20039;-65
2023/07/04 07:10:10;;;;;;;0.47;0.30;;;;;;;21.49;69.72;100214.38;4967547;28;20146;-64
2023/07/04 07:12:36;;;;;;;1.30;0.40;;;;;;;21.60;67.65;100232.47;4967839;28;20126;-64
2023/07/04 07:15:01;;;;;;;0.45;0.40;;;;;;;21.39;66.88;100242.88;4968407;28;20039;-64
2023/07/04 07:17:26;;;;;;;0.77;0.77;;;;;;;21.21;68.52;100236.41;4967752;28;20039;-65
2023/07/04 07:20:12;;;;;;;0.45;0.45;;;;;;;21.11;69.62;100242.97;4960904;28;20035;-65
2023/07/04 07:22:38;;;;;;;1.10;0.38;;;;;;;21.31;68.32;100238.81;4908786;29;20070;-65
2023/07/04 07:25:03;;;;;;;1.38;0.30;;;;;;;21.14;68.37;100242.84;4910102;29;20043;-64
2023/07/04 07:27:29;;;;;;;0.20;0.20;;;;;;;21.35;69.04;100244.22;4895778;29;20084;-65
2023/07/04 07:29:54;;;;;;;1.10;0.60;;;;;;;21.28;68.43;100236.19;4907033;29;20032;-65
2023/07/04 07:32:20;;;;;;;0.70;0.30;;;;;;;21.20;69.32;100248.56;4912595;29;20048;-65
2023/07/04 07:34:46;;;;;;;0.40;0.40;;;;;;;20.93;69.54;100259.88;4909654;29;20071;-65
2023/07/04 07:37:12;;;;;;;0.60;0.60;;;;;;;20.78;69.38;100255.22;4909270;29;20547;-63
2023/07/04 07:39:38;;;;;;;0.30;0.30;;;;;;;21.13;69.55;100255.03;4905614;29;20060;-67
2023/07/04 07:42:04;;;;;;;2.00;0.50;;;;;;;21.37;68.80;100263.69;4911530;29;20039;-66
2023/07/04 07:44:29;;;;;;;1.17;0.50;;;;;;;21.55;67.96;100261.97;4905849;29;20044;-67
2023/07/04 07:46:54;;;;;;;0.95;0.40;;;;;;;21.67;68.09;100267.88;4905728;29;20111;-65
2023/07/04 07:49:20;;;;;;;0.85;0.40;;;;;;;21.65;67.52;100262.06;4909135;29;20042;-65
2023/07/04 07:52:06;;;;;;;0.10;0.10;;;;;;;21.87;66.56;100260.22;4909143;29;20079;-66
2023/07/04 07:54:31;;;;;;;0.80;0.40;;;;;;;21.81;65.71;100265.50;4859408;29;20077;-67
2023/07/04 07:56:57;;;;;;;0.32;0.30;;;;;;;21.66;66.42;100260.88;4857873;29;20849;-67
2023/07/04 07:59:22;;;;;;;0.52;0.30;;;;;;;21.77;67.08;100253.84;4879141;29;20057;-66
2023/07/04 08:01:48;;;;;;;1.17;0.30;;;;;;;21.85;66.63;100265.38;4882256;29;20082;-67
2023/07/04 08:04:14;;;;;;;0.93;0.20;;;;;;;21.72;64.41;100268.09;4887500;29;20033;-67
2023/07/04 08:06:42;;;;;;;1.85;0.63;;;;;;;21.82;63.14;100261.53;4876814;29;20112;-67
2023/07/04 08:09:11;;;;;;;0.40;0.20;;;;;;;21.84;62.32;100264.59;4896455;29;20612;-66
2023/07/04 08:11:38;;;;;;;0.50;0.40;;;;;;;21.78;63.23;100265.56;4894021;29;20052;-64
2023/07/04 08:14:05;;;;;;;0.90;0.20;;;;;;;21.92;63.21;100265.91;4902210;29;20394;-64
2023/07/04 08:16:49;;;;;;;0.70;0.40;;;;;;;22.03;63.17;100268.28;4896841;29;20081;-65
2023/07/04 08:19:18;;;;;;;0.52;0.15;;;;;;;22.13;62.16;100261.69;4878585;29;20111;-65
2023/07/04 08:21:44;;;;;;;1.88;0.30;;;;;;;22.26;59.98;100259.72;4879634;29;20418;-66
2023/07/04 08:24:14;;;;;;;0.20;0.20;;;;;;;22.30;59.38;100268.56;4884326;29;20041;-65
2023/07/04 08:26:42;;;;;;;0.20;0.20;;;;;;;22.37;56.99;100277.34;4891360;29;20028;-65
2023/07/04 08:29:29;;;;;;;0.57;0.32;;;;;;;22.20;57.22;100270.44;4897698;29;20060;-64
2023/07/04 08:31:54;;;;;;;0.60;0.47;;;;;;;22.15;58.11;100281.22;4862719;29;20056;-66
2023/07/04 08:34:20;;;;;;;0.30;0.30;;;;;;;22.53;57.35;100270.16;4885510;29;20052;-66
2023/07/04 08:36:45;;;;;;;0.38;0.10;;;;;;;22.77;56.16;100272.03;4896639;29;20502;-65
2023/07/04 08:39:31;;;;;;;0.30;0.30;;;;;;;22.87;55.92;100279.13;4899938;29;20051;-66
2023/07/04 08:42:00;;;;;;;1.73;0.38;;;;;;;22.84;55.85;100277.25;4835777;29;20243;-66
2023/07/04 08:44:47;;;;;;;0.32;0.32;;;;;;;22.96;55.54;100283.91;4836198;29;20252;-66
2023/07/04 08:47:17;;;;;;;0.15;0.13;;;;;;;23.15;55.16;100285.59;4839839;29;20061;-66
2023/07/04 08:49:52;;;;;;;0.40;0.37;;;;;;;23.02;55.17;100291.13;4836199;29;20061;-64
2023/07/04 08:52:25;;;;;;;0.20;0.20;;;;;;;23.13;54.44;100291.50;4834141;29;20492;-65
2023/07/04 08:54:54;;;;;;;2.30;0.50;;;;;;;23.27;55.43;100292.97;4823438;29;20061;-66
2023/07/04 08:57:37;;;;;;;0.22;0.20;;;;;;;23.38;55.43;100285.13;4841718;29;20129;-66
2023/07/04 09:00:12;;;;;;;0.85;0.15;;;;;;;23.47;53.96;100281.63;4841798;29;20041;-66
2023/07/04 09:02:59;;;;;;;0.32;0.30;;;;;;;23.34;54.46;100297.47;4837751;29;20451;-65
2023/07/04 09:05:30;;;;;;;0.77;0.17;;;;;;;23.18;54.43;100279.16;4830764;29;20389;-66
2023/07/04 09:08:17;;;;;;;0.52;0.30;;;;;;;23.26;55.36;100283.97;4846510;29;20105;-65
2023/07/04 09:10:46;;;;;;;0.30;0.20;;;;;;;23.25;56.37;100276.91;4889649;29;20093;-66
2023/07/04 09:13:35;;;;;;;0.30;0.25;;;;;;;23.22;54.46;100288.81;4901115;29;20691;-65
2023/07/04 09:16:27;;;;;;;0.38;0.30;;;;;;;23.28;54.03;100295.28;4896056;29;20064;-65
2023/07/04 09:19:00;;;;;;;;;;;;;;;23.11;55.04;100298.69;4929408;28;20062;-67
2023/07/04 09:21:28;;;;;;;1.25;0.50;;;;;;;22.77;56.04;100293.25;4962608;28;20001;-63
2023/07/04 09:23:58;;;;;;;0.50;0.22;;;;;;;22.73;57.22;100281.59;4978072;28;20508;-66
2023/07/04 09:26:28;;;;;;;0.20;0.20;;;;;;;22.60;57.97;100287.16;4985137;28;20050;-66
2023/07/04 09:28:56;;;;;;;0.43;0.32;;;;;;;22.75;56.77;100293.69;4967023;28;20119;-65
2023/07/04 09:31:29;;;;;;;0.35;0.22;;;;;;;22.64;56.51;100276.81;4968713;28;20037;-66
2023/07/04 09:33:56;;;;;;;0.93;0.60;;;;;;;22.40;57.48;100281.16;4959023;28;21478;-65
2023/07/04 09:36:26;;;;;;;0.10;0.10;;;;;;;22.43;58.80;100288.53;4967559;28;20510;-65
2023/07/04 09:38:57;;;;;;;0.20;0.20;;;;;;;22.52;59.42;100283.09;4965146;28;20035;-65
2023/07/04 09:41:29;;;;;;;0.17;0.17;;;;;;;22.82;58.40;100285.19;4968495;28;20062;-66
2023/07/04 09:43:57;;;;;;;2.50;0.20;;;;;;;22.96;56.13;100289.41;4961743;28;20035;-66
2023/07/04 09:46:28;;;;;;;0.40;0.25;;;;;;;22.93;54.29;100293.84;4969831;28;20037;-65
2023/07/04 09:49:14;;;;;;;0.32;0.30;;;;;;;22.97;56.72;100288.19;4981582;28;20482;-65
2023/07/04 09:51:40;;;;;;;0.60;0.30;;;;;;;22.74;59.39;100294.13;4992054;28;20725;-64
2023/07/04 09:54:12;;;;;;;0.68;0.20;;;;;;;22.59;60.21;100298.59;4960565;28;20125;-66
2023/07/04 09:56:39;;;;;;;3.63;0.25;;;;;;;22.71;61.65;100298.53;4979004;28;20035;-66
2023/07/04 09:59:13;;;;;;;0.30;0.20;;;;;;;22.76;58.10;100291.72;4980437;28;20053;-65
2023/07/04 10:01:44;;;;;;;0.30;0.30;;;;;;;22.80;57.09;100303.34;4974730;28;20267;-64
2023/07/04 10:04:11;;;;;;;;;;;;;;;22.70;55.37;100294.28;4971324;28;20089;-65
2023/07/04 10:06:38;;;;;;;0.35;0.10;;;;;;;22.53;55.82;100303.09;4952087;28;19977;-65
2023/07/04 10:09:18;;;;;;;0.20;0.20;;;;;;;22.37;60.98;100317.75;4977618;28;20038;-66
2023/07/04 10:11:45;;;;;;;0.20;0.20;;;;;;;22.03;66.81;100331.38;4952130;28;20039;-66
2023/07/04 10:14:13;;;;;;;1.25;0.40;;;;;;;21.77;68.75;100330.63;4980599;28;20061;-69
2023/07/04 10:16:51;;;;;;;0.10;0.10;;;;;;;21.39;71.97;100335.28;4957579;28;20093;-66
2023/07/04 10:19:23;;;;;;;0.30;0.30;;;;;;;21.00;74.49;100322.66;4971220;28;20074;-65
2023/07/04 10:21:51;;;;;;;0.88;0.40;;;;;;;20.77;76.91;100316.69;4986887;23;20034;-66
2023/07/04 10:24:19;;;;;;;0.98;0.20;;;;;;;20.72;78.34;100322.66;4986282;28;20084;-67
2023/07/04 10:26:48;;;;;;;0.85;0.30;;;;;;;21.03;78.15;100315.59;4987617;28;20038;-67
2023/07/04 10:29:16;;;;;;;0.38;0.35;;;;;;;21.25;80.19;100317.28;4985473;28;20116;-66
2023/07/04 10:31:42;;;;;;;1.65;0.20;;;;;;;21.62;80.65;100321.31;4970836;28;20034;-67
2023/07/04 10:34:13;;;;;;;0.70;0.55;;;;;;;21.91;80.40;100313.00;4969741;28;20038;-67
2023/07/04 10:36:39;;;;;;;0.57;0.30;;;;;;;22.16;79.75;100323.94;4975380;28;20026;-68
2023/07/04 10:39:12;;;;;;;0.30;0.30;;;;;;;22.26;79.32;100300.88;4973022;28;20499;-66
2023/07/04 10:41:46;;;;;;;0.55;0.38;;;;;;;22.35;78.63;100309.19;4975972;28;20385;-66
2023/07/04 10:44:34;;;;;;;3.13;0.65;;;;;;;22.30;76.30;100307.75;4973201;28;20050;-69
2023/07/04 10:47:09;;;;;;;0.65;0.47;;;;;;;22.28;75.32;100321.16;4895604;29;20504;-68
2023/07/04 10:49:46;;;;;;;0.52;0.20;;;;;;;22.49;74.99;100310.69;4885804;29;20080;-68
2023/07/04 10:52:19;;;;;;;4.03;0.73;;;;;;;22.34;74.66;100313.91;4891450;29;20044;-68
2023/07/04 10:54:44;;;;;;;0.43;0.25;;;;;;;22.39;73.15;100318.06;4910173;29;20044;-67
2023/07/04 10:57:14;;;;;;;0.20;0.20;;;;;;;22.51;71.08;100314.53;4915235;29;20036;-67
2023/07/04 10:59:44;;;;;;;0.40;0.28;;;;;;;22.46;69.04;100312.31;4894299;29;20047;-66
2023/07/04 11:02:55;;;;;;;0.32;0.30;;;;;;;22.39;67.14;100323.56;4916081;29;20181;-66
2023/07/04 11:05:49;;;;;;;0.37;0.20;;;;;;;22.27;64.49;100319.63;4881086;29;20127;-66
2023/07/04 11:08:17;;;;;;;0.80;0.30;;;;;;;22.21;65.16;100326.09;4897320;29;20056;-67
2023/07/04 11:10:48;;;;;;;0.20;0.10;;;;;;;22.40;63.42;100327.81;4907991;29;20166;-66
2023/07/04 11:13:16;;;;;;;0.43;0.25;;;;;;;22.55;62.93;100320.63;4913537;29;20059;-70
2023/07/04 11:16:05;;;;;;;0.32;0.20;;;;;;;22.89;64.51;100325.38;4911321;29;20055;-66
2023/07/04 11:18:37;;;;;;;0.20;0.15;;;;;;;23.13;57.94;100329.97;4852856;29;20469;-66
2023/07/04 11:21:12;;;;;;;1.20;0.15;;;;;;;23.45;57.01;100334.34;4852963;29;20463;-67
2023/07/04 11:24:08;;;;;;;0.47;0.20;;;;;;;23.69;58.03;100345.63;4881484;29;20054;-67
2023/07/04 11:27:01;;;;;;;1.17;0.40;;;;;;;23.89;54.92;100340.47;4911191;29;20043;-69
2023/07/04 11:29:44;;;;;;;0.05;0.05;;;;;;;23.93;53.83;100330.09;4910514;29;20051;-69
2023/07/04 11:32:11;;;;;;;0.35;0.28;;;;;;;24.21;54.15;100342.78;4917522;29;20416;-67
2023/07/04 11:34:46;;;;;;;0.20;0.20;;;;;;;24.54;53.87;100345.72;4925360;29;20059;-67
2023/07/04 11:37:18;;;;;;;1.05;0.20;;;;;;;24.68;54.84;100350.66;4918598;29;20087;-68